AXM6241 WMKP-WMKL
Flight info
| Callsign | AXM6241 |
|---|---|
| Flight time | 0h 18m |
| Altitude | 10000 |
| Route | OMBOK DCT KAPKO KAPKO1E |
| Aircraft | A320/M-SDE3FGHIRWY/LB1 |
Departure
| Time | 2026-05-03 21:06 |
|---|---|
| Airport | Penang International Airport (WMKP) |
Arrival
| Time | 2026-05-03 21:24 |
|---|---|
| Airport | Langkawi International Airport (WMKL) |
| Time | Latitude | Longitude | Altitude | Speed | Heading |
|---|---|---|---|---|---|
| 2026-05-03 20:39 | 5.29195 | 100.26624 | 23 ft | 0 kts | 311° |
| 2026-05-03 20:59 | 5.29181 | 100.26640 | 23 ft | 3 kts | 307° |
| 2026-05-03 20:59 | 5.29168 | 100.26660 | 23 ft | 3 kts | 298° |
| 2026-05-03 20:59 | 5.29158 | 100.26681 | 25 ft | 3 kts | 278° |
| 2026-05-03 21:00 | 5.29160 | 100.26702 | 23 ft | 3 kts | 227° |
| 2026-05-03 21:00 | 5.29164 | 100.26707 | 23 ft | 1 kts | 221° |
| 2026-05-03 21:00 | 5.29165 | 100.26708 | 23 ft | 0 kts | 221° |
| 2026-05-03 21:02 | 5.29162 | 100.26705 | 23 ft | 4 kts | 221° |
| 2026-05-03 21:02 | 5.29116 | 100.26664 | 23 ft | 13 kts | 221° |
| 2026-05-03 21:02 | 5.29045 | 100.26601 | 23 ft | 14 kts | 221° |
| 2026-05-03 21:02 | 5.28977 | 100.26541 | 23 ft | 12 kts | 221° |
| 2026-05-03 21:03 | 5.28910 | 100.26495 | 23 ft | 11 kts | 204° |
| 2026-05-03 21:03 | 5.28843 | 100.26496 | 23 ft | 9 kts | 144° |
| 2026-05-03 21:03 | 5.28800 | 100.26540 | 23 ft | 8 kts | 132° |
| 2026-05-03 21:03 | 5.28722 | 100.26578 | 25 ft | 15 kts | 173° |
| 2026-05-03 21:04 | 5.28643 | 100.26638 | 25 ft | 14 kts | 134° |
| 2026-05-03 21:04 | 5.28626 | 100.26696 | 25 ft | 0 kts | 45° |
| 2026-05-03 21:05 | 5.28630 | 100.26699 | 25 ft | 5 kts | 45° |
| 2026-05-03 21:06 | 5.28844 | 100.26896 | 29 ft | 81 kts | 42° |
| 2026-05-03 21:06 | 5.29434 | 100.27428 | 23 ft | 143 kts | 42° |
| 2026-05-03 21:06 | 5.30278 | 100.28199 | 252 ft | 174 kts | 41° |
| 2026-05-03 21:06 | 5.31190 | 100.29009 | 1020 ft | 174 kts | 41° |
| 2026-05-03 21:07 | 5.32115 | 100.29838 | 1570 ft | 188 kts | 42° |
| 2026-05-03 21:07 | 5.33140 | 100.30761 | 1967 ft | 208 kts | 42° |
| 2026-05-03 21:07 | 5.34294 | 100.31787 | 2372 ft | 234 kts | 41° |
| 2026-05-03 21:07 | 5.35571 | 100.32911 | 2876 ft | 257 kts | 41° |
| 2026-05-03 21:08 | 5.37022 | 100.34041 | 3575 ft | 270 kts | 26° |
| 2026-05-03 21:08 | 5.38848 | 100.34365 | 4405 ft | 276 kts | 352° |
| 2026-05-03 21:08 | 5.40606 | 100.33617 | 5273 ft | 281 kts | 322° |
| 2026-05-03 21:08 | 5.42005 | 100.32233 | 6188 ft | 284 kts | 311° |
| 2026-05-03 21:09 | 5.43299 | 100.30729 | 7039 ft | 287 kts | 310° |
| 2026-05-03 21:09 | 5.44626 | 100.29187 | 7909 ft | 291 kts | 312° |
| 2026-05-03 21:09 | 5.46027 | 100.27705 | 8782 ft | 294 kts | 316° |
| 2026-05-03 21:09 | 5.47517 | 100.26271 | 9659 ft | 298 kts | 318° |
| 2026-05-03 21:10 | 5.49062 | 100.24860 | 10343 ft | 307 kts | 319° |
| 2026-05-03 21:10 | 5.50744 | 100.23405 | 10605 ft | 330 kts | 321° |
| 2026-05-03 21:10 | 5.52554 | 100.21934 | 10935 ft | 349 kts | 322° |
| 2026-05-03 21:10 | 5.54464 | 100.20365 | 11436 ft | 360 kts | 321° |
| 2026-05-03 21:11 | 5.56397 | 100.18744 | 11786 ft | 363 kts | 321° |
| 2026-05-03 21:11 | 5.58341 | 100.17106 | 11843 ft | 373 kts | 321° |
| 2026-05-03 21:11 | 5.60366 | 100.15400 | 11861 ft | 382 kts | 321° |
| 2026-05-03 21:11 | 5.62399 | 100.13681 | 11906 ft | 384 kts | 321° |
| 2026-05-03 21:12 | 5.64452 | 100.11944 | 11861 ft | 384 kts | 321° |
| 2026-05-03 21:12 | 5.66490 | 100.10213 | 11850 ft | 384 kts | 321° |
| 2026-05-03 21:12 | 5.68514 | 100.08507 | 11870 ft | 384 kts | 321° |
| 2026-05-03 21:12 | 5.70583 | 100.06759 | 11892 ft | 384 kts | 321° |
| 2026-05-03 21:13 | 5.72614 | 100.05063 | 11887 ft | 384 kts | 323° |
| 2026-05-03 21:13 | 5.74840 | 100.03597 | 11857 ft | 382 kts | 334° |
| 2026-05-03 21:13 | 5.77213 | 100.02390 | 11887 ft | 382 kts | 335° |
| 2026-05-03 21:13 | 5.79604 | 100.01219 | 11906 ft | 382 kts | 336° |
| 2026-05-03 21:14 | 5.82015 | 100.00081 | 11904 ft | 382 kts | 336° |
| 2026-05-03 21:14 | 5.84422 | 99.98961 | 11868 ft | 382 kts | 336° |
| 2026-05-03 21:14 | 5.86843 | 99.97851 | 11875 ft | 382 kts | 336° |
| 2026-05-03 21:14 | 5.89222 | 99.96744 | 11878 ft | 382 kts | 336° |
| 2026-05-03 21:15 | 5.91655 | 99.95586 | 11890 ft | 382 kts | 336° |
| 2026-05-03 21:15 | 5.94008 | 99.94382 | 11609 ft | 378 kts | 329° |
| 2026-05-03 21:15 | 5.96030 | 99.92717 | 11104 ft | 374 kts | 314° |
| 2026-05-03 21:15 | 5.97573 | 99.90657 | 10569 ft | 372 kts | 301° |
| 2026-05-03 21:16 | 5.98875 | 99.88468 | 10394 ft | 357 kts | 302° |
| 2026-05-03 21:16 | 6.00138 | 99.86390 | 10259 ft | 342 kts | 302° |
| 2026-05-03 21:16 | 6.01373 | 99.84398 | 10143 ft | 329 kts | 303° |
| 2026-05-03 21:16 | 6.02538 | 99.82461 | 9816 ft | 316 kts | 300° |
| 2026-05-03 21:17 | 6.03600 | 99.80575 | 8933 ft | 305 kts | 299° |
| 2026-05-03 21:17 | 6.04270 | 99.79348 | 8361 ft | 299 kts | 299° |
| 2026-05-03 21:17 | 6.05576 | 99.76927 | 7159 ft | 291 kts | 298° |
| 2026-05-03 21:17 | 6.06535 | 99.75157 | 6347 ft | 285 kts | 299° |
| 2026-05-03 21:18 | 6.07490 | 99.73422 | 5776 ft | 283 kts | 299° |
| 2026-05-03 21:18 | 6.08446 | 99.71698 | 5260 ft | 282 kts | 299° |
| 2026-05-03 21:18 | 6.09400 | 99.69968 | 4787 ft | 284 kts | 299° |
| 2026-05-03 21:18 | 6.10365 | 99.68238 | 4228 ft | 287 kts | 299° |
| 2026-05-03 21:19 | 6.11314 | 99.66524 | 3935 ft | 280 kts | 299° |
| 2026-05-03 21:19 | 6.12243 | 99.64830 | 3619 ft | 274 kts | 299° |
| 2026-05-03 21:19 | 6.13220 | 99.63197 | 3171 ft | 269 kts | 307° |
| 2026-05-03 21:19 | 6.14475 | 99.61943 | 2871 ft | 242 kts | 328° |
| 2026-05-03 21:20 | 6.16012 | 99.61453 | 2786 ft | 229 kts | 6° |
| 2026-05-03 21:20 | 6.17411 | 99.62094 | 2600 ft | 222 kts | 38° |
| 2026-05-03 21:20 | 6.18623 | 99.63061 | 2338 ft | 221 kts | 35° |
| 2026-05-03 21:20 | 6.19878 | 99.63923 | 2154 ft | 216 kts | 34° |
| 2026-05-03 21:21 | 6.21101 | 99.64761 | 2037 ft | 208 kts | 34° |
| 2026-05-03 21:21 | 6.22259 | 99.65544 | 1975 ft | 194 kts | 34° |
| 2026-05-03 21:21 | 6.23357 | 99.66273 | 1872 ft | 181 kts | 33° |
| 2026-05-03 21:21 | 6.24376 | 99.66946 | 1696 ft | 170 kts | 33° |
| 2026-05-03 21:22 | 6.25289 | 99.67577 | 1534 ft | 152 kts | 36° |
| 2026-05-03 21:22 | 6.26124 | 99.68177 | 1336 ft | 144 kts | 35° |
| 2026-05-03 21:22 | 6.26948 | 99.68732 | 1144 ft | 141 kts | 36° |
| 2026-05-03 21:22 | 6.27745 | 99.69295 | 984 ft | 139 kts | 35° |
| 2026-05-03 21:23 | 6.28546 | 99.69837 | 823 ft | 138 kts | 35° |
| 2026-05-03 21:23 | 6.29340 | 99.70375 | 650 ft | 137 kts | 34° |
| 2026-05-03 21:23 | 6.30126 | 99.70902 | 493 ft | 135 kts | 35° |
| 2026-05-03 21:23 | 6.30902 | 99.71440 | 330 ft | 135 kts | 35° |
| 2026-05-03 21:24 | 6.31681 | 99.71972 | 166 ft | 135 kts | 34° |
| 2026-05-03 21:24 | 6.32442 | 99.72498 | 38 ft | 130 kts | 35° |
| 2026-05-03 21:24 | 6.33048 | 99.72916 | 37 ft | 65 kts | 34° |
| 2026-05-03 21:24 | 6.33292 | 99.73082 | 38 ft | 38 kts | 34° |
| 2026-05-03 21:25 | 6.33507 | 99.73232 | 37 ft | 37 kts | 33° |
| 2026-05-03 21:25 | 6.33681 | 99.73349 | 36 ft | 19 kts | 30° |
| 2026-05-03 21:25 | 6.33774 | 99.73312 | 36 ft | 16 kts | 307° |
| 2026-05-03 21:25 | 6.33841 | 99.73218 | 35 ft | 13 kts | 306° |
| 2026-05-03 21:26 | 6.33851 | 99.73205 | 36 ft | 1 kts | 307° |
| 2026-05-03 21:26 | 6.33861 | 99.73199 | 36 ft | 4 kts | 333° |
| 2026-05-03 21:26 | 6.33898 | 99.73206 | 36 ft | 5 kts | 25° |
| 2026-05-03 21:26 | 6.33916 | 99.73214 | 36 ft | 2 kts | 11° |
| 2026-05-03 21:27 | 6.33932 | 99.73201 | 34 ft | 5 kts | 303° |
| 2026-05-03 21:27 | 6.33949 | 99.73175 | 34 ft | 2 kts | 303° |
| 2026-05-03 21:27 | 6.33954 | 99.73167 | 35 ft | 1 kts | 303° |
| 2026-05-03 21:27 | 6.33955 | 99.73165 | 36 ft | 0 kts | 303° |